< < Back
Terminal Aerodrome Forecast


Current Version              Previous Versions:   1  2  3  4  5  6  7  8  9  

Terminal Aerodrome Forecast

781
FTUS42 KCHS 051722
TAFSAV
TAF
KSAV 051722Z 0518/0618 35014G22KT P6SM SKC
     FM052100 35011KT P6SM SKC
     FM060000 01005KT P6SM SKC=

Latest METAR

932
SAUS80 KWBC 061500 RRA
MTRSAV
METAR KSAV 061453Z 04011KT 10SM FEW035 BKN080 OVC200 08/M04 A3035 RMK
AO2 SLP278 T00831039 55002


USA.gov is the U.S. government's official web portal to all federal, state and local government web resources and services.